createdAt,value
2023-03-21T00:00:42.852Z,14.35
2023-03-21T00:03:10.100Z,15.26
2023-03-21T00:05:51.907Z,15.61
2023-03-21T00:08:20.741Z,14.28
2023-03-21T00:10:47.985Z,13.29
2023-03-21T00:13:16.087Z,13.91
2023-03-21T00:18:47.429Z,15.19
2023-03-21T00:24:08.181Z,13.67
2023-03-21T00:26:35.769Z,14.67
2023-03-21T00:29:02.722Z,15.31
2023-03-21T00:31:29.613Z,15.44
2023-03-21T00:33:57.045Z,14.32
2023-03-21T00:36:26.098Z,13.69
2023-03-21T00:38:53.872Z,14.79
2023-03-21T00:41:35.011Z,15.40
2023-03-21T00:44:07.815Z,14.11
2023-03-21T00:46:45.627Z,13.65
2023-03-21T00:49:14.241Z,14.52
2023-03-21T00:51:41.131Z,15.46
2023-03-21T00:54:08.049Z,14.84
2023-03-21T00:56:34.953Z,13.37
2023-03-21T00:59:01.816Z,12.67
2023-03-21T01:01:32.352Z,13.54
2023-03-21T01:04:04.828Z,14.56
2023-03-21T01:06:39.607Z,15.19
2023-03-21T01:09:11.806Z,14.63
2023-03-21T01:11:38.715Z,13.41
2023-03-21T01:14:21.495Z,13.61
2023-03-21T01:16:51.343Z,14.52
2023-03-21T01:19:27.457Z,15.29
2023-03-21T01:21:58.080Z,14.31
2023-03-21T01:24:25.896Z,13.47
2023-03-21T01:26:52.776Z,14.22
2023-03-21T01:29:20.051Z,14.84
2023-03-21T01:31:47.325Z,15.10
2023-03-21T01:34:14.347Z,15.17
2023-03-21T01:36:41.494Z,14.02
2023-03-21T01:39:13.263Z,13.30
2023-03-21T01:41:44.306Z,14.11
2023-03-21T01:44:29.808Z,15.28
2023-03-21T01:47:11.023Z,14.75
2023-03-21T01:49:49.942Z,13.34
2023-03-21T01:52:52.183Z,14.03
2023-03-21T01:55:26.621Z,14.57
2023-03-21T01:58:06.979Z,14.86
2023-03-21T02:00:57.804Z,14.81
2023-03-21T02:03:38.454Z,15.20
2023-03-21T02:06:40.972Z,14.27
2023-03-21T02:09:19.822Z,13.39
2023-03-21T02:11:47.312Z,14.31
2023-03-21T02:14:23.394Z,15.26
2023-03-21T02:17:19.671Z,14.37
2023-03-21T02:20:09.054Z,13.27
2023-03-21T02:22:54.205Z,13.69
2023-03-21T02:25:33.328Z,14.45
2023-03-21T02:28:09.870Z,14.80
2023-03-21T02:31:04.791Z,14.87
2023-03-21T02:33:57.567Z,14.95
2023-03-21T02:36:38.237Z,14.82
2023-03-21T02:39:31.918Z,13.69
2023-03-21T02:42:11.454Z,13.04
2023-03-21T02:44:50.520Z,13.73
2023-03-21T02:47:38.507Z,14.20
2023-03-21T02:50:22.019Z,14.46
2023-03-21T02:52:50.321Z,14.77
2023-03-21T02:55:23.041Z,14.92
2023-03-21T02:57:57.036Z,14.83
2023-03-21T03:00:29.788Z,13.62
2023-03-21T03:03:08.730Z,12.73
2023-03-21T03:05:48.247Z,13.28
2023-03-21T03:08:37.581Z,14.65
2023-03-21T03:11:48.601Z,14.74
2023-03-21T03:14:49.579Z,13.32
2023-03-21T03:17:37.479Z,14.00
2023-03-21T03:20:24.868Z,15.21
2023-03-21T03:23:12.169Z,14.18
2023-03-21T03:25:52.641Z,13.38
2023-03-21T03:28:26.822Z,14.52
2023-03-21T03:31:08.090Z,15.23
2023-03-21T03:33:48.218Z,13.97
2023-03-21T03:36:33.622Z,12.98
2023-03-21T03:39:10.480Z,13.58
2023-03-21T03:42:21.698Z,14.37
2023-03-21T03:44:41.649Z,14.92
2023-03-21T03:47:17.526Z,13.65
2023-03-21T03:49:55.261Z,12.98
2023-03-21T03:52:29.812Z,13.96
2023-03-21T03:55:05.218Z,15.00
2023-03-21T03:57:34.738Z,15.28
2023-03-21T04:00:01.642Z,14.17
2023-03-21T04:02:47.176Z,13.21
2023-03-21T04:05:21.478Z,13.79
2023-03-21T04:07:51.204Z,14.58
2023-03-21T04:10:22.188Z,14.86
2023-03-21T04:12:49.942Z,14.55
2023-03-21T04:15:39.705Z,13.12
2023-03-21T04:18:11.543Z,12.83
2023-03-21T04:20:38.495Z,13.37
2023-03-21T04:23:06.745Z,13.77
2023-03-21T04:25:44.619Z,14.13
2023-03-21T04:28:17.843Z,14.33
2023-03-21T04:31:02.367Z,14.74
2023-03-21T04:33:38.679Z,14.45
2023-03-21T04:36:09.601Z,13.22
2023-03-21T04:38:37.337Z,12.57
2023-03-21T04:41:04.692Z,13.07
2023-03-21T04:43:32.246Z,13.77
2023-03-21T04:45:59.345Z,14.38
2023-03-21T04:48:27.703Z,14.80
2023-03-21T04:50:55.105Z,14.22
2023-03-21T04:53:22.035Z,13.02
2023-03-21T04:55:52.433Z,13.05
2023-03-21T04:58:20.616Z,13.71
2023-03-21T05:00:48.046Z,14.07
2023-03-21T05:03:19.637Z,14.29
2023-03-21T05:05:48.287Z,14.48
2023-03-21T05:08:16.114Z,14.59
2023-03-21T05:10:43.610Z,14.85
2023-03-21T05:13:10.996Z,14.78
2023-03-21T05:15:38.347Z,13.55
2023-03-21T05:18:10.451Z,12.82
2023-03-21T05:20:43.130Z,13.60
2023-03-21T05:23:11.848Z,14.46
2023-03-21T05:25:40.347Z,14.89
2023-03-21T05:28:20.394Z,14.99
2023-03-21T05:30:48.308Z,13.84
2023-03-21T05:33:15.461Z,12.85
2023-03-21T05:35:42.617Z,13.18
2023-03-21T05:38:10.577Z,13.80
2023-03-21T05:40:47.888Z,14.21
2023-03-21T05:43:14.802Z,14.40
2023-03-21T05:45:42.007Z,14.60
2023-03-21T05:48:09.489Z,14.78
2023-03-21T05:50:47.943Z,14.93
2023-03-21T05:53:18.020Z,14.07
2023-03-21T05:55:44.899Z,13.17
2023-03-21T05:58:17.982Z,13.10
2023-03-21T06:00:47.727Z,14.32
2023-03-21T06:03:19.959Z,15.41
2023-03-21T06:06:08.839Z,14.41
2023-03-21T06:08:39.111Z,13.37
2023-03-21T06:11:13.340Z,13.02
2023-03-21T06:13:40.419Z,14.11
2023-03-21T06:16:08.480Z,15.32
2023-03-21T06:18:35.936Z,15.24
2023-03-21T06:21:15.115Z,14.09
2023-03-21T06:23:42.093Z,13.18
2023-03-21T06:26:09.289Z,12.75
2023-03-21T06:28:36.574Z,13.58
2023-03-21T06:31:04.073Z,14.42
2023-03-21T06:33:33.386Z,14.60
2023-03-21T06:36:00.463Z,13.69
2023-03-21T06:38:28.511Z,12.71
2023-03-21T06:40:55.366Z,12.59
2023-03-21T06:43:23.973Z,13.77
2023-03-21T06:45:51.125Z,14.75
2023-03-21T06:48:18.204Z,14.60
2023-03-21T06:50:50.446Z,13.49
2023-03-21T06:53:20.854Z,12.70
2023-03-21T06:56:12.914Z,13.10
2023-03-21T06:58:40.558Z,13.83
2023-03-21T07:01:09.547Z,14.34
2023-03-21T07:03:43.241Z,14.51
2023-03-21T07:06:14.558Z,13.76
2023-03-21T07:08:41.780Z,12.81
2023-03-21T07:11:09.906Z,12.36
2023-03-21T07:13:36.848Z,13.59
2023-03-21T07:16:04.988Z,14.85
2023-03-21T07:18:32.435Z,14.46
2023-03-21T07:20:59.407Z,13.40
2023-03-21T07:23:27.160Z,12.56
2023-03-21T07:25:54.660Z,12.49
2023-03-21T07:28:22.972Z,14.00
2023-03-21T07:31:01.138Z,14.99
2023-03-21T07:33:28.614Z,14.16
2023-03-21T07:35:58.819Z,13.08
2023-03-21T07:38:26.772Z,12.66
2023-03-21T07:40:54.210Z,13.97
2023-03-21T07:43:21.812Z,15.24
2023-03-21T07:45:51.947Z,15.18
2023-03-21T07:48:19.738Z,14.29
2023-03-21T07:50:46.718Z,13.45
2023-03-21T07:53:13.645Z,12.78
2023-03-21T07:55:40.803Z,12.65
2023-03-21T07:58:07.806Z,14.01
2023-03-21T08:00:34.765Z,15.38
2023-03-21T08:03:02.037Z,15.95
2023-03-21T08:05:34.072Z,14.97
2023-03-21T08:08:01.441Z,13.87
2023-03-21T08:10:28.791Z,13.10
2023-03-21T08:12:55.936Z,12.98
2023-03-21T08:15:23.226Z,14.57
2023-03-21T08:17:50.465Z,15.82
2023-03-21T08:20:21.388Z,15.27
2023-03-21T08:22:49.592Z,14.36
2023-03-21T08:25:18.584Z,13.73
2023-03-21T08:27:47.053Z,13.80
2023-03-21T08:30:17.938Z,15.68
2023-03-21T08:32:45.100Z,17.18
2023-03-21T08:35:14.195Z,16.77
2023-03-21T08:37:41.464Z,16.12
2023-03-21T08:40:15.860Z,15.76
2023-03-21T08:42:43.731Z,15.48
2023-03-21T08:45:12.080Z,15.20
2023-03-21T08:47:39.554Z,14.91
2023-03-21T08:50:09.127Z,14.57
2023-03-21T08:52:37.341Z,14.18
2023-03-21T08:55:05.068Z,13.74
2023-03-21T08:57:32.000Z,13.35
2023-03-21T08:59:59.050Z,13.09
2023-03-21T09:02:25.951Z,13.32
2023-03-21T09:04:59.280Z,15.20
2023-03-21T09:07:28.060Z,16.72
2023-03-21T09:10:18.626Z,16.34
2023-03-21T09:12:41.813Z,15.76
2023-03-21T09:15:12.201Z,15.68
2023-03-21T09:17:42.595Z,15.88
2023-03-21T09:20:18.928Z,16.12
2023-03-21T09:22:52.138Z,16.27
2023-03-21T09:25:20.807Z,16.12
2023-03-21T09:27:48.223Z,15.86
2023-03-21T09:30:17.575Z,15.59
2023-03-21T09:32:49.621Z,15.32
2023-03-21T09:35:20.843Z,15.03
2023-03-21T09:37:49.180Z,14.74
2023-03-21T09:40:40.326Z,14.61
2023-03-21T09:43:35.731Z,14.59
2023-03-21T09:46:12.489Z,14.58
2023-03-21T09:49:02.169Z,14.45
2023-03-21T09:51:33.656Z,14.16
2023-03-21T09:54:07.635Z,13.79
2023-03-21T09:56:39.255Z,13.38
2023-03-21T09:59:09.258Z,13.00
2023-03-21T10:01:42.118Z,12.72
2023-03-21T10:04:14.080Z,12.52
2023-03-21T10:06:42.976Z,12.84
2023-03-21T10:09:21.654Z,14.81
2023-03-21T10:11:54.348Z,16.13
2023-03-21T10:14:38.798Z,15.47
2023-03-21T10:17:34.305Z,14.60
2023-03-21T10:20:24.614Z,13.96
2023-03-21T10:22:55.343Z,13.52
2023-03-21T10:25:31.747Z,13.21
2023-03-21T10:28:01.198Z,13.00
2023-03-21T10:30:42.386Z,12.87
2023-03-21T10:33:15.608Z,12.65
2023-03-21T10:35:46.817Z,12.45
2023-03-21T10:38:18.950Z,12.85
2023-03-21T10:40:46.706Z,14.61
2023-03-21T10:43:37.517Z,15.82
2023-03-21T10:46:13.874Z,15.27
2023-03-21T10:48:47.048Z,14.49
2023-03-21T10:51:22.196Z,13.91
2023-03-21T10:53:57.112Z,13.48
2023-03-21T10:56:28.381Z,13.15
2023-03-21T10:59:01.178Z,12.97
2023-03-21T11:01:41.498Z,12.78
2023-03-21T11:04:22.646Z,12.56
2023-03-21T11:07:01.463Z,12.84
2023-03-21T11:09:55.891Z,14.76
2023-03-21T11:12:37.382Z,15.49
2023-03-21T11:15:27.588Z,14.48
2023-03-21T11:17:54.716Z,13.46
2023-03-21T11:20:22.246Z,12.91
2023-03-21T11:22:50.227Z,13.83
2023-03-21T11:25:25.649Z,15.43
2023-03-21T11:27:55.084Z,15.20
2023-03-21T11:30:28.067Z,14.18
2023-03-21T11:33:02.030Z,13.41
2023-03-21T11:35:34.560Z,12.90
2023-03-21T11:38:01.701Z,12.61
2023-03-21T11:40:34.033Z,13.02
2023-03-21T11:43:02.060Z,15.21
2023-03-21T11:45:32.024Z,16.14
2023-03-21T11:48:00.267Z,15.55
2023-03-21T11:50:35.449Z,14.94
2023-03-21T11:53:28.195Z,14.72
2023-03-21T11:56:16.795Z,14.85
2023-03-21T12:01:10.425Z,15.84
2023-03-21T12:03:48.627Z,16.11
2023-03-21T12:06:37.739Z,16.12
2023-03-21T12:09:13.296Z,16.15
2023-03-21T12:12:18.618Z,16.35
2023-03-21T12:15:26.043Z,16.72
2023-03-21T12:17:55.801Z,17.17
2023-03-21T12:20:31.660Z,17.23
2023-03-21T12:23:21.695Z,17.12
2023-03-21T12:25:48.613Z,16.86
2023-03-21T12:28:32.438Z,16.63
2023-03-21T12:31:20.181Z,16.38
2023-03-21T12:33:56.489Z,16.17
2023-03-21T12:36:48.302Z,16.04
2023-03-21T12:39:39.707Z,15.89
2023-03-21T12:42:42.004Z,15.63
2023-03-21T12:45:16.192Z,15.39
2023-03-21T12:47:49.054Z,15.24
2023-03-21T12:50:23.593Z,15.15
2023-03-21T12:52:58.716Z,15.14
2023-03-21T12:55:31.005Z,15.12
2023-03-21T12:58:10.532Z,15.00
2023-03-21T13:00:53.668Z,14.84
2023-03-21T13:03:38.946Z,14.78
2023-03-21T13:06:09.663Z,14.75
2023-03-21T13:08:37.684Z,14.74
2023-03-21T13:11:07.273Z,14.81
2023-03-21T13:13:47.225Z,14.89
2023-03-21T13:16:23.795Z,14.99
2023-03-21T13:19:10.948Z,15.09
2023-03-21T13:21:51.349Z,15.19
2023-03-21T13:24:21.083Z,15.25
2023-03-21T13:27:26.408Z,15.33
2023-03-21T13:30:05.398Z,15.51
2023-03-21T13:32:37.477Z,15.65
2023-03-21T13:35:13.864Z,15.77
2023-03-21T13:37:49.012Z,15.82
2023-03-21T13:40:29.358Z,15.76
2023-03-21T13:42:59.985Z,15.62
2023-03-21T13:45:52.763Z,15.46
2023-03-21T13:48:29.588Z,15.18
2023-03-21T13:51:05.275Z,14.90
2023-03-21T13:53:37.409Z,14.62
2023-03-21T13:56:12.053Z,14.35
2023-03-21T13:58:52.586Z,14.12
2023-03-21T14:01:26.468Z,13.93
2023-03-21T14:03:59.833Z,13.80
2023-03-21T14:06:39.601Z,13.74
2023-03-21T14:09:07.878Z,13.74
2023-03-21T14:11:38.308Z,13.73
2023-03-21T14:14:06.268Z,13.69
2023-03-21T14:16:34.029Z,13.55
2023-03-21T14:19:04.397Z,13.35
2023-03-21T14:21:37.520Z,13.11
2023-03-21T14:24:12.988Z,12.86
2023-03-21T14:26:59.176Z,12.66
2023-03-21T14:29:35.901Z,12.49
2023-03-21T14:32:03.759Z,12.38
2023-03-21T14:34:35.224Z,12.26
2023-03-21T14:37:02.538Z,12.17
2023-03-21T14:39:32.601Z,12.53
2023-03-21T14:42:07.018Z,14.17
2023-03-21T14:44:56.800Z,14.16
2023-03-21T14:47:26.174Z,13.72
2023-03-21T14:49:54.818Z,13.76
2023-03-21T14:52:36.570Z,14.18
2023-03-21T14:55:17.452Z,14.79
2023-03-21T14:57:44.591Z,15.38
2023-03-21T15:00:43.228Z,15.80
2023-03-21T15:03:13.668Z,16.09
2023-03-21T15:05:42.837Z,16.18
2023-03-21T15:08:17.177Z,16.24
2023-03-21T15:11:08.656Z,16.26
2023-03-21T15:13:45.609Z,16.19
2023-03-21T15:16:15.114Z,16.10
2023-03-21T15:18:44.808Z,15.97
2023-03-21T15:21:27.855Z,15.80
2023-03-21T15:23:59.538Z,15.64
2023-03-21T15:26:27.698Z,15.53
2023-03-21T15:29:00.563Z,15.41
2023-03-21T15:31:35.689Z,15.24
2023-03-21T15:34:04.226Z,15.03
2023-03-21T15:36:38.093Z,14.83
2023-03-21T15:39:08.855Z,14.67
2023-03-21T15:41:35.856Z,14.54
2023-03-21T15:44:06.647Z,14.42
2023-03-21T15:46:41.631Z,14.28
2023-03-21T15:49:29.721Z,14.02
2023-03-21T15:52:15.099Z,13.69
2023-03-21T15:54:48.169Z,13.35
2023-03-21T15:57:30.140Z,13.06
2023-03-21T16:00:07.417Z,12.77
2023-03-21T16:02:42.062Z,12.47
2023-03-21T16:05:29.210Z,12.20
2023-03-21T16:08:27.547Z,11.90
2023-03-21T16:10:54.780Z,11.62
2023-03-21T16:13:21.848Z,11.41
2023-03-21T16:15:48.752Z,11.21
2023-03-21T16:18:18.239Z,11.05
2023-03-21T16:20:47.170Z,10.89
2023-03-21T16:23:16.034Z,10.74
2023-03-21T16:25:44.187Z,10.59
2023-03-21T16:28:18.010Z,10.48
2023-03-21T16:30:46.060Z,10.90
2023-03-21T16:33:13.896Z,12.76
2023-03-21T16:35:41.482Z,13.98
2023-03-21T16:38:12.556Z,13.55
2023-03-21T16:40:41.931Z,12.86
2023-03-21T16:43:10.483Z,12.37
2023-03-21T16:45:38.591Z,12.05
2023-03-21T16:48:06.255Z,11.81
2023-03-21T16:50:37.299Z,11.62
2023-03-21T16:53:04.519Z,11.44
2023-03-21T16:55:33.793Z,11.27
2023-03-21T16:58:01.542Z,11.08
2023-03-21T17:00:31.036Z,10.89
2023-03-21T17:03:01.861Z,11.10
2023-03-21T17:05:33.244Z,12.84
2023-03-21T17:08:04.765Z,14.04
2023-03-21T17:10:32.980Z,13.38
2023-03-21T17:13:00.659Z,12.41
2023-03-21T17:15:27.944Z,11.68
2023-03-21T17:17:55.993Z,11.10
2023-03-21T17:20:26.805Z,10.60
2023-03-21T17:22:53.796Z,10.69
2023-03-21T17:25:20.987Z,12.20
2023-03-21T17:27:49.461Z,13.27
2023-03-21T17:30:29.201Z,12.60
2023-03-21T17:32:56.210Z,11.55
2023-03-21T17:35:24.598Z,10.81
2023-03-21T17:37:52.441Z,10.24
2023-03-21T17:40:28.544Z,10.17
2023-03-21T17:42:58.254Z,11.75
2023-03-21T17:45:25.842Z,12.93
2023-03-21T17:47:55.564Z,12.27
2023-03-21T17:50:27.388Z,11.23
2023-03-21T17:52:56.747Z,10.40
2023-03-21T17:55:24.518Z,9.79
2023-03-21T17:57:52.281Z,9.73
2023-03-21T18:00:23.372Z,11.28
2023-03-21T18:02:51.843Z,12.70
2023-03-21T18:05:22.092Z,13.11
2023-03-21T18:08:09.808Z,12.07
2023-03-21T18:10:38.613Z,10.79
2023-03-21T18:13:06.334Z,9.93
2023-03-21T18:15:33.821Z,9.93
2023-03-21T18:18:01.739Z,11.28
2023-03-21T18:20:50.391Z,12.13
2023-03-21T18:23:19.087Z,11.25
2023-03-21T18:25:46.570Z,10.23
2023-03-21T18:28:17.622Z,9.43
2023-03-21T18:33:37.437Z,10.70
2023-03-21T18:36:07.473Z,12.13
2023-03-21T18:38:36.673Z,12.60
2023-03-21T18:41:04.518Z,11.50
2023-03-21T18:46:19.131Z,9.31
2023-03-21T18:48:46.686Z,9.03
2023-03-21T18:51:14.205Z,10.44
2023-03-21T18:53:41.839Z,11.77
2023-03-21T18:56:10.604Z,12.08
2023-03-21T18:58:38.784Z,11.00
2023-03-21T19:01:06.599Z,9.78
2023-03-21T19:03:37.116Z,9.75
2023-03-21T19:06:06.638Z,10.60
2023-03-21T19:08:38.815Z,11.58
2023-03-21T19:11:07.155Z,11.37
2023-03-21T19:13:34.816Z,9.95
2023-03-21T19:16:03.184Z,9.10
2023-03-21T19:21:21.909Z,10.94
2023-03-21T19:26:36.553Z,11.16
2023-03-21T19:29:04.207Z,10.04
2023-03-21T19:31:31.644Z,8.95
2023-03-21T19:33:59.704Z,8.10
2023-03-21T19:36:27.430Z,7.83
2023-03-21T19:38:54.509Z,9.11
2023-03-21T19:41:21.533Z,10.37
2023-03-21T19:43:54.842Z,10.75
2023-03-21T19:46:25.661Z,9.69
2023-03-21T19:48:56.560Z,8.53
2023-03-21T19:51:29.818Z,8.06
2023-03-21T19:54:04.396Z,9.34
2023-03-21T19:56:32.118Z,10.57
2023-03-21T19:59:01.853Z,10.40
2023-03-21T20:01:29.143Z,9.04
2023-03-21T20:03:57.747Z,7.86
2023-03-21T20:06:25.533Z,7.38
2023-03-21T20:09:34.145Z,8.58
2023-03-21T20:11:41.143Z,10.08
2023-03-21T20:14:08.295Z,10.46
2023-03-21T20:16:37.206Z,9.25
2023-03-21T20:19:08.511Z,7.97
2023-03-21T20:21:46.534Z,7.42
2023-03-21T20:24:17.041Z,8.74
2023-03-21T20:26:46.231Z,9.71
2023-03-21T20:30:07.543Z,8.95
2023-03-21T20:32:00.951Z,7.67
2023-03-21T20:34:30.268Z,7.12
2023-03-21T20:36:58.977Z,8.21
2023-03-21T20:39:28.641Z,9.48
2023-03-21T20:41:59.405Z,9.89
2023-03-21T20:44:51.835Z,8.77
2023-03-21T20:47:14.938Z,7.36
2023-03-21T20:49:42.285Z,6.83
2023-03-21T20:55:00.008Z,9.19
2023-03-21T20:57:28.170Z,9.67
2023-03-21T20:59:55.621Z,8.67
2023-03-21T21:02:23.935Z,7.51
2023-03-21T21:05:23.690Z,6.91
2023-03-21T21:07:43.140Z,8.24
2023-03-21T21:10:14.375Z,9.33
2023-03-21T21:12:45.422Z,8.82
2023-03-21T21:15:15.178Z,7.47
2023-03-21T21:20:29.939Z,7.92
2023-03-21T21:23:00.004Z,8.83
2023-03-21T21:25:29.200Z,9.02
2023-03-21T21:27:56.532Z,7.95
2023-03-21T21:30:26.170Z,6.72
2023-03-21T21:32:54.441Z,6.10
2023-03-21T21:35:22.962Z,6.87
2023-03-21T21:37:51.792Z,7.98
2023-03-21T21:40:20.750Z,8.77
2023-03-21T21:42:51.044Z,9.08
2023-03-21T21:45:20.064Z,7.91
2023-03-21T21:47:47.710Z,6.69
2023-03-21T21:50:14.681Z,6.05
2023-03-21T21:52:54.857Z,6.71
2023-03-21T21:55:22.759Z,7.56
2023-03-21T21:57:53.727Z,8.21
2023-03-21T22:00:21.125Z,8.49
2023-03-21T22:02:48.449Z,8.37
2023-03-21T22:05:17.309Z,7.39
2023-03-21T22:07:47.310Z,6.32
2023-03-21T22:10:16.736Z,5.75
2023-03-21T22:12:44.051Z,6.43
2023-03-21T22:15:13.773Z,7.23
2023-03-21T22:17:42.516Z,7.77
2023-03-21T22:20:12.688Z,7.87
2023-03-21T22:22:40.747Z,6.98
2023-03-21T22:25:10.862Z,5.99
2023-03-21T22:27:38.878Z,5.42
2023-03-21T22:30:08.789Z,5.90
2023-03-21T22:32:36.605Z,6.51
2023-03-21T22:35:05.776Z,6.88
2023-03-21T22:37:35.798Z,7.26
2023-03-21T22:40:06.115Z,7.47
2023-03-21T22:42:33.346Z,7.71
2023-03-21T22:45:02.138Z,7.77
2023-03-21T22:47:32.071Z,6.85
2023-03-21T22:50:01.289Z,5.82
2023-03-21T22:52:28.393Z,5.21
2023-03-21T22:54:55.388Z,5.51
2023-03-21T22:57:22.816Z,5.92
2023-03-21T22:59:50.043Z,6.21
2023-03-21T23:02:18.537Z,6.36
2023-03-21T23:04:45.652Z,6.44
2023-03-21T23:07:12.666Z,6.52
2023-03-21T23:09:39.561Z,6.58
2023-03-21T23:12:06.570Z,6.57
2023-03-21T23:14:33.519Z,6.53
2023-03-21T23:17:02.819Z,6.55
2023-03-21T23:19:30.855Z,6.54
2023-03-21T23:21:57.948Z,6.51
2023-03-21T23:24:25.722Z,6.52
2023-03-21T23:26:53.092Z,6.53
2023-03-21T23:29:20.213Z,6.49
2023-03-21T23:31:47.520Z,6.47
2023-03-21T23:34:14.756Z,6.53
2023-03-21T23:36:42.034Z,6.53
2023-03-21T23:39:09.883Z,6.54
2023-03-21T23:41:36.804Z,6.56
2023-03-21T23:44:04.626Z,6.58
2023-03-21T23:46:32.026Z,6.60
2023-03-21T23:48:59.261Z,6.63
2023-03-21T23:51:26.291Z,6.65
2023-03-21T23:53:54.225Z,6.65
2023-03-21T23:56:23.835Z,6.62
2023-03-21T23:58:51.555Z,6.58
